sensor_id;sensor_type;location;lat;lon;timestamp;P1;durP1;ratioP1;P2;durP2;ratioP2
41966;SDS011;27656;53.068;8.818;2023-04-03T00:00:36;3.70;;;1.87;;
41966;SDS011;27656;53.068;8.818;2023-04-03T00:03:03;5.13;;;2.13;;
41966;SDS011;27656;53.068;8.818;2023-04-03T00:05:30;7.70;;;2.10;;
41966;SDS011;27656;53.068;8.818;2023-04-03T00:07:56;7.87;;;2.27;;
41966;SDS011;27656;53.068;8.818;2023-04-03T00:10:23;7.03;;;2.13;;
41966;SDS011;27656;53.068;8.818;2023-04-03T00:20:09;5.37;;;1.90;;
41966;SDS011;27656;53.068;8.818;2023-04-03T00:22:35;5.77;;;1.97;;
41966;SDS011;27656;53.068;8.818;2023-04-03T00:25:02;7.03;;;2.37;;
41966;SDS011;27656;53.068;8.818;2023-04-03T00:27:29;6.67;;;1.83;;
41966;SDS011;27656;53.068;8.818;2023-04-03T00:29:56;11.03;;;2.33;;
41966;SDS011;27656;53.068;8.818;2023-04-03T00:32:22;6.23;;;2.10;;
41966;SDS011;27656;53.068;8.818;2023-04-03T00:34:49;5.20;;;2.30;;
41966;SDS011;27656;53.068;8.818;2023-04-03T00:42:08;5.57;;;2.20;;
41966;SDS011;27656;53.068;8.818;2023-04-03T00:47:02;6.00;;;2.27;;
41966;SDS011;27656;53.068;8.818;2023-04-03T00:56:50;5.50;;;2.00;;
41966;SDS011;27656;53.068;8.818;2023-04-03T00:59:19;5.07;;;2.07;;
41966;SDS011;27656;53.068;8.818;2023-04-03T01:01:51;4.53;;;1.83;;
41966;SDS011;27656;53.068;8.818;2023-04-03T01:04:26;9.70;;;2.00;;
41966;SDS011;27656;53.068;8.818;2023-04-03T01:06:58;5.23;;;1.97;;
41966;SDS011;27656;53.068;8.818;2023-04-03T01:09:27;5.97;;;2.10;;
41966;SDS011;27656;53.068;8.818;2023-04-03T01:12:11;6.67;;;2.40;;
41966;SDS011;27656;53.068;8.818;2023-04-03T01:14:39;3.60;;;1.90;;
41966;SDS011;27656;53.068;8.818;2023-04-03T01:17:23;3.63;;;1.73;;
41966;SDS011;27656;53.068;8.818;2023-04-03T01:28:07;5.93;;;1.80;;
41966;SDS011;27656;53.068;8.818;2023-04-03T01:30:51;6.90;;;2.10;;
41966;SDS011;27656;53.068;8.818;2023-04-03T01:33:22;5.63;;;2.10;;
41966;SDS011;27656;53.068;8.818;2023-04-03T01:35:49;5.03;;;1.93;;
41966;SDS011;27656;53.068;8.818;2023-04-03T01:38:16;4.97;;;2.20;;
41966;SDS011;27656;53.068;8.818;2023-04-03T01:40:42;7.13;;;2.33;;
41966;SDS011;27656;53.068;8.818;2023-04-03T01:43:09;4.40;;;2.10;;
41966;SDS011;27656;53.068;8.818;2023-04-03T01:45:36;6.53;;;2.07;;
41966;SDS011;27656;53.068;8.818;2023-04-03T01:48:02;9.07;;;2.60;;
41966;SDS011;27656;53.068;8.818;2023-04-03T01:50:29;7.63;;;3.47;;
41966;SDS011;27656;53.068;8.818;2023-04-03T01:52:55;6.73;;;2.00;;
41966;SDS011;27656;53.068;8.818;2023-04-03T01:55:21;6.40;;;2.10;;
41966;SDS011;27656;53.068;8.818;2023-04-03T01:57:48;5.60;;;2.17;;
41966;SDS011;27656;53.068;8.818;2023-04-03T02:00:14;4.30;;;2.00;;
41966;SDS011;27656;53.068;8.818;2023-04-03T02:02:41;7.83;;;2.53;;
41966;SDS011;27656;53.068;8.818;2023-04-03T02:05:08;5.83;;;2.30;;
41966;SDS011;27656;53.068;8.818;2023-04-03T02:07:34;4.17;;;2.07;;
41966;SDS011;27656;53.068;8.818;2023-04-03T02:10:01;9.30;;;2.57;;
41966;SDS011;27656;53.068;8.818;2023-04-03T02:12:27;5.47;;;2.23;;
41966;SDS011;27656;53.068;8.818;2023-04-03T02:14:54;9.80;;;2.27;;
41966;SDS011;27656;53.068;8.818;2023-04-03T02:17:20;7.57;;;2.40;;
41966;SDS011;27656;53.068;8.818;2023-04-03T02:19:47;7.10;;;2.20;;
41966;SDS011;27656;53.068;8.818;2023-04-03T02:22:13;4.17;;;1.90;;
41966;SDS011;27656;53.068;8.818;2023-04-03T02:24:40;4.80;;;2.20;;
41966;SDS011;27656;53.068;8.818;2023-04-03T02:27:07;11.47;;;2.53;;
41966;SDS011;27656;53.068;8.818;2023-04-03T02:29:33;6.87;;;2.33;;
41966;SDS011;27656;53.068;8.818;2023-04-03T02:32:00;7.23;;;2.10;;
41966;SDS011;27656;53.068;8.818;2023-04-03T02:34:26;4.27;;;1.70;;
41966;SDS011;27656;53.068;8.818;2023-04-03T02:36:53;7.90;;;2.13;;
41966;SDS011;27656;53.068;8.818;2023-04-03T02:39:19;7.43;;;2.17;;
41966;SDS011;27656;53.068;8.818;2023-04-03T02:41:46;5.07;;;2.00;;
41966;SDS011;27656;53.068;8.818;2023-04-03T02:44:12;5.83;;;2.53;;
41966;SDS011;27656;53.068;8.818;2023-04-03T02:46:39;9.30;;;2.60;;
41966;SDS011;27656;53.068;8.818;2023-04-03T02:49:05;6.93;;;2.30;;
41966;SDS011;27656;53.068;8.818;2023-04-03T02:51:32;4.73;;;1.70;;
41966;SDS011;27656;53.068;8.818;2023-04-03T02:53:59;6.67;;;2.27;;
41966;SDS011;27656;53.068;8.818;2023-04-03T02:56:25;5.27;;;1.90;;
41966;SDS011;27656;53.068;8.818;2023-04-03T02:58:52;5.83;;;1.90;;
41966;SDS011;27656;53.068;8.818;2023-04-03T03:01:19;6.07;;;2.77;;
41966;SDS011;27656;53.068;8.818;2023-04-03T03:03:46;6.70;;;2.30;;
41966;SDS011;27656;53.068;8.818;2023-04-03T03:06:13;6.50;;;1.93;;
41966;SDS011;27656;53.068;8.818;2023-04-03T03:08:41;5.10;;;1.90;;
41966;SDS011;27656;53.068;8.818;2023-04-03T03:11:08;5.30;;;1.87;;
41966;SDS011;27656;53.068;8.818;2023-04-03T03:13:35;8.53;;;2.00;;
41966;SDS011;27656;53.068;8.818;2023-04-03T03:16:02;8.03;;;2.10;;
41966;SDS011;27656;53.068;8.818;2023-04-03T03:18:28;3.33;;;1.80;;
41966;SDS011;27656;53.068;8.818;2023-04-03T03:20:56;7.20;;;2.20;;
41966;SDS011;27656;53.068;8.818;2023-04-03T03:23:24;5.67;;;2.00;;
41966;SDS011;27656;53.068;8.818;2023-04-03T03:25:55;6.97;;;1.80;;
41966;SDS011;27656;53.068;8.818;2023-04-03T03:28:26;3.40;;;1.70;;
41966;SDS011;27656;53.068;8.818;2023-04-03T03:30:52;8.77;;;2.07;;
41966;SDS011;27656;53.068;8.818;2023-04-03T03:33:19;4.40;;;2.17;;
41966;SDS011;27656;53.068;8.818;2023-04-03T03:35:45;6.73;;;2.10;;
41966;SDS011;27656;53.068;8.818;2023-04-03T03:38:12;8.17;;;1.93;;
41966;SDS011;27656;53.068;8.818;2023-04-03T03:40:39;5.30;;;2.10;;
41966;SDS011;27656;53.068;8.818;2023-04-03T03:43:05;7.10;;;2.00;;
41966;SDS011;27656;53.068;8.818;2023-04-03T03:45:32;9.47;;;2.37;;
41966;SDS011;27656;53.068;8.818;2023-04-03T03:47:58;5.57;;;1.90;;
41966;SDS011;27656;53.068;8.818;2023-04-03T03:50:25;8.13;;;2.30;;
41966;SDS011;27656;53.068;8.818;2023-04-03T03:52:51;7.00;;;2.10;;
41966;SDS011;27656;53.068;8.818;2023-04-03T03:55:18;8.83;;;1.90;;
41966;SDS011;27656;53.068;8.818;2023-04-03T03:57:44;8.30;;;2.10;;
41966;SDS011;27656;53.068;8.818;2023-04-03T04:00:11;5.57;;;2.03;;
41966;SDS011;27656;53.068;8.818;2023-04-03T04:02:37;5.90;;;3.10;;
41966;SDS011;27656;53.068;8.818;2023-04-03T04:05:04;22.77;;;9.97;;
41966;SDS011;27656;53.068;8.818;2023-04-03T04:07:31;12.47;;;5.97;;
41966;SDS011;27656;53.068;8.818;2023-04-03T04:09:57;6.93;;;2.33;;
41966;SDS011;27656;53.068;8.818;2023-04-03T04:12:24;8.37;;;2.20;;
41966;SDS011;27656;53.068;8.818;2023-04-03T04:14:50;11.67;;;2.33;;
41966;SDS011;27656;53.068;8.818;2023-04-03T04:17:16;7.03;;;2.00;;
41966;SDS011;27656;53.068;8.818;2023-04-03T04:19:43;11.27;;;2.10;;
41966;SDS011;27656;53.068;8.818;2023-04-03T04:22:10;7.40;;;2.30;;
41966;SDS011;27656;53.068;8.818;2023-04-03T04:24:36;6.63;;;1.97;;
41966;SDS011;27656;53.068;8.818;2023-04-03T04:27:04;8.17;;;1.90;;
41966;SDS011;27656;53.068;8.818;2023-04-03T04:29:31;5.07;;;1.80;;
41966;SDS011;27656;53.068;8.818;2023-04-03T04:32:02;6.30;;;2.10;;
41966;SDS011;27656;53.068;8.818;2023-04-03T04:34:29;6.37;;;2.10;;
41966;SDS011;27656;53.068;8.818;2023-04-03T04:36:56;7.30;;;2.20;;
41966;SDS011;27656;53.068;8.818;2023-04-03T04:39:23;7.07;;;1.90;;
41966;SDS011;27656;53.068;8.818;2023-04-03T04:41:49;7.17;;;1.90;;
41966;SDS011;27656;53.068;8.818;2023-04-03T04:44:15;5.87;;;2.10;;
41966;SDS011;27656;53.068;8.818;2023-04-03T04:46:42;8.87;;;2.00;;
41966;SDS011;27656;53.068;8.818;2023-04-03T04:49:09;9.73;;;2.07;;
41966;SDS011;27656;53.068;8.818;2023-04-03T04:51:35;9.13;;;2.17;;
41966;SDS011;27656;53.068;8.818;2023-04-03T04:54:16;7.47;;;2.17;;
41966;SDS011;27656;53.068;8.818;2023-04-03T04:56:43;5.10;;;2.00;;
41966;SDS011;27656;53.068;8.818;2023-04-03T04:59:09;5.43;;;2.07;;
41966;SDS011;27656;53.068;8.818;2023-04-03T05:01:36;7.10;;;2.20;;
41966;SDS011;27656;53.068;8.818;2023-04-03T05:04:02;8.17;;;2.20;;
41966;SDS011;27656;53.068;8.818;2023-04-03T05:06:29;7.23;;;3.70;;
41966;SDS011;27656;53.068;8.818;2023-04-03T05:08:58;7.53;;;2.53;;
41966;SDS011;27656;53.068;8.818;2023-04-03T05:11:24;5.47;;;2.67;;
41966;SDS011;27656;53.068;8.818;2023-04-03T05:13:52;8.03;;;2.17;;
41966;SDS011;27656;53.068;8.818;2023-04-03T05:16:18;8.03;;;1.90;;
41966;SDS011;27656;53.068;8.818;2023-04-03T05:18:45;7.30;;;2.30;;
41966;SDS011;27656;53.068;8.818;2023-04-03T05:21:12;12.73;;;2.50;;
41966;SDS011;27656;53.068;8.818;2023-04-03T05:23:38;8.20;;;2.70;;
41966;SDS011;27656;53.068;8.818;2023-04-03T05:26:04;5.03;;;2.23;;
41966;SDS011;27656;53.068;8.818;2023-04-03T05:28:32;7.07;;;2.40;;
41966;SDS011;27656;53.068;8.818;2023-04-03T05:30:58;3.23;;;1.77;;
41966;SDS011;27656;53.068;8.818;2023-04-03T05:33:25;3.83;;;1.97;;
41966;SDS011;27656;53.068;8.818;2023-04-03T05:35:52;9.23;;;2.43;;
41966;SDS011;27656;53.068;8.818;2023-04-03T05:38:19;6.27;;;1.80;;
41966;SDS011;27656;53.068;8.818;2023-04-03T05:40:46;6.80;;;2.37;;
41966;SDS011;27656;53.068;8.818;2023-04-03T05:43:13;9.73;;;2.40;;
41966;SDS011;27656;53.068;8.818;2023-04-03T05:45:39;6.23;;;1.80;;
41966;SDS011;27656;53.068;8.818;2023-04-03T05:48:06;6.50;;;2.10;;
41966;SDS011;27656;53.068;8.818;2023-04-03T05:50:32;6.33;;;2.20;;
41966;SDS011;27656;53.068;8.818;2023-04-03T05:52:58;4.33;;;1.87;;
41966;SDS011;27656;53.068;8.818;2023-04-03T05:55:25;10.70;;;1.97;;
41966;SDS011;27656;53.068;8.818;2023-04-03T05:57:51;6.93;;;2.30;;
41966;SDS011;27656;53.068;8.818;2023-04-03T06:00:18;7.93;;;1.97;;
41966;SDS011;27656;53.068;8.818;2023-04-03T06:02:45;7.60;;;2.17;;
41966;SDS011;27656;53.068;8.818;2023-04-03T06:05:11;7.60;;;2.17;;
41966;SDS011;27656;53.068;8.818;2023-04-03T06:07:39;7.07;;;2.00;;
41966;SDS011;27656;53.068;8.818;2023-04-03T06:10:06;7.07;;;2.67;;
41966;SDS011;27656;53.068;8.818;2023-04-03T06:12:33;5.80;;;1.87;;
41966;SDS011;27656;53.068;8.818;2023-04-03T06:14:59;6.97;;;1.90;;
41966;SDS011;27656;53.068;8.818;2023-04-03T06:17:25;10.50;;;2.30;;
41966;SDS011;27656;53.068;8.818;2023-04-03T06:19:53;9.57;;;1.97;;
41966;SDS011;27656;53.068;8.818;2023-04-03T06:22:19;6.43;;;1.93;;
41966;SDS011;27656;53.068;8.818;2023-04-03T06:24:46;7.30;;;2.03;;
41966;SDS011;27656;53.068;8.818;2023-04-03T06:27:12;6.93;;;2.00;;
41966;SDS011;27656;53.068;8.818;2023-04-03T06:29:39;5.67;;;2.13;;
41966;SDS011;27656;53.068;8.818;2023-04-03T06:32:06;4.07;;;1.83;;
41966;SDS011;27656;53.068;8.818;2023-04-03T06:34:32;8.60;;;2.23;;
41966;SDS011;27656;53.068;8.818;2023-04-03T06:36:59;5.20;;;1.93;;
41966;SDS011;27656;53.068;8.818;2023-04-03T06:39:26;4.80;;;1.63;;
41966;SDS011;27656;53.068;8.818;2023-04-03T06:41:53;9.57;;;2.17;;
41966;SDS011;27656;53.068;8.818;2023-04-03T06:44:19;4.40;;;2.00;;
41966;SDS011;27656;53.068;8.818;2023-04-03T06:46:46;5.87;;;1.67;;
41966;SDS011;27656;53.068;8.818;2023-04-03T06:49:12;7.70;;;1.67;;
41966;SDS011;27656;53.068;8.818;2023-04-03T06:51:39;8.53;;;2.33;;
41966;SDS011;27656;53.068;8.818;2023-04-03T06:54:06;3.77;;;1.80;;
41966;SDS011;27656;53.068;8.818;2023-04-03T06:56:34;6.23;;;1.83;;
41966;SDS011;27656;53.068;8.818;2023-04-03T06:59:02;7.47;;;1.77;;
41966;SDS011;27656;53.068;8.818;2023-04-03T07:01:29;5.27;;;2.20;;
41966;SDS011;27656;53.068;8.818;2023-04-03T07:03:56;6.20;;;2.20;;
41966;SDS011;27656;53.068;8.818;2023-04-03T07:06:22;6.87;;;1.93;;
41966;SDS011;27656;53.068;8.818;2023-04-03T07:08:49;11.37;;;2.00;;
41966;SDS011;27656;53.068;8.818;2023-04-03T07:11:16;5.83;;;1.70;;
41966;SDS011;27656;53.068;8.818;2023-04-03T07:13:43;9.10;;;1.83;;
41966;SDS011;27656;53.068;8.818;2023-04-03T07:16:09;9.03;;;2.00;;
41966;SDS011;27656;53.068;8.818;2023-04-03T07:18:36;6.73;;;1.80;;
41966;SDS011;27656;53.068;8.818;2023-04-03T07:21:03;6.07;;;1.87;;
41966;SDS011;27656;53.068;8.818;2023-04-03T07:23:30;6.87;;;1.70;;
41966;SDS011;27656;53.068;8.818;2023-04-03T07:25:56;4.77;;;1.90;;
41966;SDS011;27656;53.068;8.818;2023-04-03T07:28:23;5.57;;;1.50;;
41966;SDS011;27656;53.068;8.818;2023-04-03T07:30:51;5.73;;;1.80;;
41966;SDS011;27656;53.068;8.818;2023-04-03T07:33:20;3.77;;;1.57;;
41966;SDS011;27656;53.068;8.818;2023-04-03T07:35:47;6.57;;;1.70;;
41966;SDS011;27656;53.068;8.818;2023-04-03T07:38:14;4.67;;;1.50;;
41966;SDS011;27656;53.068;8.818;2023-04-03T07:40:45;5.07;;;1.50;;
41966;SDS011;27656;53.068;8.818;2023-04-03T07:43:13;6.03;;;1.80;;
41966;SDS011;27656;53.068;8.818;2023-04-03T07:45:40;5.20;;;1.53;;
41966;SDS011;27656;53.068;8.818;2023-04-03T07:48:07;2.57;;;1.60;;
41966;SDS011;27656;53.068;8.818;2023-04-03T07:50:33;8.20;;;1.60;;
41966;SDS011;27656;53.068;8.818;2023-04-03T07:53:00;6.47;;;1.77;;
41966;SDS011;27656;53.068;8.818;2023-04-03T07:55:26;7.67;;;1.40;;
41966;SDS011;27656;53.068;8.818;2023-04-03T07:57:53;6.40;;;1.50;;
41966;SDS011;27656;53.068;8.818;2023-04-03T08:00:19;3.73;;;1.50;;
41966;SDS011;27656;53.068;8.818;2023-04-03T08:02:46;3.53;;;1.47;;
41966;SDS011;27656;53.068;8.818;2023-04-03T08:05:18;4.37;;;1.40;;
41966;SDS011;27656;53.068;8.818;2023-04-03T08:07:45;2.93;;;1.10;;
41966;SDS011;27656;53.068;8.818;2023-04-03T08:10:13;5.30;;;1.50;;
41966;SDS011;27656;53.068;8.818;2023-04-03T08:12:40;4.60;;;1.30;;
41966;SDS011;27656;53.068;8.818;2023-04-03T08:15:07;2.43;;;1.00;;
41966;SDS011;27656;53.068;8.818;2023-04-03T08:17:34;4.53;;;1.23;;
41966;SDS011;27656;53.068;8.818;2023-04-03T08:20:02;3.23;;;1.27;;
41966;SDS011;27656;53.068;8.818;2023-04-03T08:22:30;5.63;;;1.10;;
41966;SDS011;27656;53.068;8.818;2023-04-03T08:24:57;6.67;;;1.57;;
41966;SDS011;27656;53.068;8.818;2023-04-03T08:27:25;3.20;;;1.10;;
41966;SDS011;27656;53.068;8.818;2023-04-03T08:29:53;4.47;;;1.33;;
41966;SDS011;27656;53.068;8.818;2023-04-03T08:32:20;4.87;;;1.30;;
41966;SDS011;27656;53.068;8.818;2023-04-03T08:34:47;5.73;;;1.20;;
41966;SDS011;27656;53.068;8.818;2023-04-03T08:37:13;4.30;;;1.27;;
41966;SDS011;27656;53.068;8.818;2023-04-03T08:39:39;4.57;;;1.37;;
41966;SDS011;27656;53.068;8.818;2023-04-03T08:42:12;3.67;;;1.30;;
41966;SDS011;27656;53.068;8.818;2023-04-03T08:47:48;1.23;;;0.90;;
41966;SDS011;27656;53.068;8.818;2023-04-03T08:50:23;4.17;;;1.13;;
41966;SDS011;27656;53.068;8.818;2023-04-03T08:52:56;6.80;;;1.40;;
41966;SDS011;27656;53.068;8.818;2023-04-03T08:58:03;3.17;;;1.43;;
41966;SDS011;27656;53.068;8.818;2023-04-03T09:00:48;2.23;;;1.10;;
41966;SDS011;27656;53.068;8.818;2023-04-03T09:03:18;7.80;;;1.50;;
41966;SDS011;27656;53.068;8.818;2023-04-03T09:08:43;1.40;;;0.90;;
41966;SDS011;27656;53.068;8.818;2023-04-03T09:11:20;4.37;;;1.00;;
41966;SDS011;27656;53.068;8.818;2023-04-03T09:16:59;1.87;;;1.00;;
41966;SDS011;27656;53.068;8.818;2023-04-03T09:21:57;1.17;;;0.87;;
41966;SDS011;27656;53.068;8.818;2023-04-03T09:24:24;4.83;;;1.20;;
41966;SDS011;27656;53.068;8.818;2023-04-03T09:26:53;2.47;;;1.10;;
41966;SDS011;27656;53.068;8.818;2023-04-03T09:29:25;1.67;;;1.10;;
41966;SDS011;27656;53.068;8.818;2023-04-03T09:31:52;2.70;;;1.00;;
41966;SDS011;27656;53.068;8.818;2023-04-03T09:34:24;1.53;;;1.00;;
41966;SDS011;27656;53.068;8.818;2023-04-03T09:36:53;1.53;;;0.80;;
41966;SDS011;27656;53.068;8.818;2023-04-03T09:39:22;3.23;;;0.87;;
41966;SDS011;27656;53.068;8.818;2023-04-03T09:41:55;2.03;;;1.03;;
41966;SDS011;27656;53.068;8.818;2023-04-03T09:44:30;4.83;;;0.97;;
41966;SDS011;27656;53.068;8.818;2023-04-03T09:46:58;3.20;;;0.90;;
41966;SDS011;27656;53.068;8.818;2023-04-03T09:49:25;1.43;;;0.87;;
41966;SDS011;27656;53.068;8.818;2023-04-03T09:51:52;3.67;;;1.00;;
41966;SDS011;27656;53.068;8.818;2023-04-03T09:54:30;2.30;;;1.10;;
41966;SDS011;27656;53.068;8.818;2023-04-03T09:57:06;3.30;;;0.83;;
41966;SDS011;27656;53.068;8.818;2023-04-03T09:59:40;1.83;;;0.80;;
41966;SDS011;27656;53.068;8.818;2023-04-03T10:05:27;2.43;;;0.77;;
41966;SDS011;27656;53.068;8.818;2023-04-03T10:08:09;3.63;;;1.13;;
41966;SDS011;27656;53.068;8.818;2023-04-03T10:10:37;3.30;;;1.10;;
41966;SDS011;27656;53.068;8.818;2023-04-03T10:13:11;2.67;;;0.90;;
41966;SDS011;27656;53.068;8.818;2023-04-03T10:24:01;1.70;;;0.87;;
41966;SDS011;27656;53.068;8.818;2023-04-03T10:35:11;2.57;;;1.10;;
41966;SDS011;27656;53.068;8.818;2023-04-03T10:37:51;2.13;;;1.10;;
41966;SDS011;27656;53.068;8.818;2023-04-03T10:45:53;1.97;;;1.10;;
41966;SDS011;27656;53.068;8.818;2023-04-03T10:51:17;6.93;;;1.03;;
41966;SDS011;27656;53.068;8.818;2023-04-03T10:54:04;2.17;;;1.00;;
41966;SDS011;27656;53.068;8.818;2023-04-03T10:56:37;1.97;;;1.17;;
41966;SDS011;27656;53.068;8.818;2023-04-03T11:01:55;3.90;;;1.50;;
41966;SDS011;27656;53.068;8.818;2023-04-03T11:04:24;3.33;;;1.17;;
41966;SDS011;27656;53.068;8.818;2023-04-03T11:06:58;3.73;;;1.17;;
41966;SDS011;27656;53.068;8.818;2023-04-03T11:09:28;3.13;;;1.47;;
41966;SDS011;27656;53.068;8.818;2023-04-03T11:12:05;4.07;;;1.07;;
41966;SDS011;27656;53.068;8.818;2023-04-03T11:14:39;1.73;;;1.10;;
41966;SDS011;27656;53.068;8.818;2023-04-03T11:17:19;2.90;;;1.00;;
41966;SDS011;27656;53.068;8.818;2023-04-03T11:20:00;1.53;;;0.87;;
41966;SDS011;27656;53.068;8.818;2023-04-03T11:22:41;4.13;;;1.00;;
41966;SDS011;27656;53.068;8.818;2023-04-03T11:27:50;3.67;;;1.20;;
41966;SDS011;27656;53.068;8.818;2023-04-03T11:30:27;4.50;;;1.20;;
41966;SDS011;27656;53.068;8.818;2023-04-03T11:35:32;1.60;;;1.00;;
41966;SDS011;27656;53.068;8.818;2023-04-03T11:37:59;2.60;;;1.10;;
41966;SDS011;27656;53.068;8.818;2023-04-03T11:40:33;2.40;;;1.20;;
41966;SDS011;27656;53.068;8.818;2023-04-03T11:43:03;4.10;;;1.10;;
41966;SDS011;27656;53.068;8.818;2023-04-03T11:45:32;3.47;;;1.07;;
41966;SDS011;27656;53.068;8.818;2023-04-03T11:48:06;2.23;;;0.90;;
41966;SDS011;27656;53.068;8.818;2023-04-03T11:50:55;2.47;;;1.10;;
41966;SDS011;27656;53.068;8.818;2023-04-03T11:53:29;3.33;;;0.90;;
41966;SDS011;27656;53.068;8.818;2023-04-03T11:55:58;4.73;;;1.17;;
41966;SDS011;27656;53.068;8.818;2023-04-03T11:58:27;2.33;;;1.20;;
41966;SDS011;27656;53.068;8.818;2023-04-03T12:13:35;3.77;;;1.53;;
41966;SDS011;27656;53.068;8.818;2023-04-03T12:16:53;4.20;;;1.40;;
41966;SDS011;27656;53.068;8.818;2023-04-03T12:21:20;2.17;;;1.33;;
41966;SDS011;27656;53.068;8.818;2023-04-03T12:26:51;3.70;;;1.20;;
41966;SDS011;27656;53.068;8.818;2023-04-03T12:46:21;4.33;;;1.63;;
41966;SDS011;27656;53.068;8.818;2023-04-03T12:48:49;5.03;;;1.63;;
41966;SDS011;27656;53.068;8.818;2023-04-03T12:51:22;1.97;;;1.10;;
41966;SDS011;27656;53.068;8.818;2023-04-03T12:53:57;2.17;;;1.37;;
41966;SDS011;27656;53.068;8.818;2023-04-03T12:56:29;5.13;;;1.47;;
41966;SDS011;27656;53.068;8.818;2023-04-03T12:59:15;7.73;;;1.70;;
41966;SDS011;27656;53.068;8.818;2023-04-03T13:01:54;4.40;;;1.40;;
41966;SDS011;27656;53.068;8.818;2023-04-03T13:04:25;6.43;;;1.40;;
41966;SDS011;27656;53.068;8.818;2023-04-03T13:06:53;3.07;;;1.40;;
41966;SDS011;27656;53.068;8.818;2023-04-03T13:09:24;2.83;;;1.43;;
41966;SDS011;27656;53.068;8.818;2023-04-03T13:11:58;2.90;;;1.03;;
41966;SDS011;27656;53.068;8.818;2023-04-03T13:14:27;5.20;;;1.70;;
41966;SDS011;27656;53.068;8.818;2023-04-03T13:16:56;5.30;;;1.80;;
41966;SDS011;27656;53.068;8.818;2023-04-03T13:19:24;4.73;;;1.37;;
41966;SDS011;27656;53.068;8.818;2023-04-03T13:21:57;5.23;;;1.50;;
41966;SDS011;27656;53.068;8.818;2023-04-03T13:24:27;4.40;;;1.77;;
41966;SDS011;27656;53.068;8.818;2023-04-03T13:26:55;5.90;;;1.40;;
41966;SDS011;27656;53.068;8.818;2023-04-03T13:29:29;1.90;;;1.20;;
41966;SDS011;27656;53.068;8.818;2023-04-03T13:31:58;3.10;;;1.27;;
41966;SDS011;27656;53.068;8.818;2023-04-03T13:34:35;2.27;;;1.27;;
41966;SDS011;27656;53.068;8.818;2023-04-03T13:37:03;3.00;;;1.27;;
41966;SDS011;27656;53.068;8.818;2023-04-03T13:39:38;3.17;;;1.37;;
41966;SDS011;27656;53.068;8.818;2023-04-03T13:45:22;3.20;;;1.50;;
41966;SDS011;27656;53.068;8.818;2023-04-03T13:48:07;6.27;;;1.50;;
41966;SDS011;27656;53.068;8.818;2023-04-03T13:53:27;4.17;;;1.20;;
41966;SDS011;27656;53.068;8.818;2023-04-03T13:55:57;3.53;;;1.20;;
41966;SDS011;27656;53.068;8.818;2023-04-03T13:58:29;5.33;;;1.47;;
41966;SDS011;27656;53.068;8.818;2023-04-03T14:01:06;3.73;;;1.20;;
41966;SDS011;27656;53.068;8.818;2023-04-03T14:03:37;3.53;;;1.17;;
41966;SDS011;27656;53.068;8.818;2023-04-03T14:06:08;3.73;;;1.37;;
41966;SDS011;27656;53.068;8.818;2023-04-03T14:08:38;4.57;;;1.40;;
41966;SDS011;27656;53.068;8.818;2023-04-03T14:11:11;4.27;;;1.60;;
41966;SDS011;27656;53.068;8.818;2023-04-03T14:13:40;3.30;;;1.63;;
41966;SDS011;27656;53.068;8.818;2023-04-03T14:16:06;4.73;;;1.43;;
41966;SDS011;27656;53.068;8.818;2023-04-03T14:18:41;3.03;;;1.70;;
41966;SDS011;27656;53.068;8.818;2023-04-03T14:21:08;3.73;;;1.50;;
41966;SDS011;27656;53.068;8.818;2023-04-03T14:23:36;4.07;;;1.70;;
41966;SDS011;27656;53.068;8.818;2023-04-03T14:26:04;3.43;;;1.33;;
41966;SDS011;27656;53.068;8.818;2023-04-03T14:28:36;3.30;;;1.60;;
41966;SDS011;27656;53.068;8.818;2023-04-03T14:31:02;2.83;;;1.40;;
41966;SDS011;27656;53.068;8.818;2023-04-03T14:33:29;3.73;;;1.40;;
41966;SDS011;27656;53.068;8.818;2023-04-03T14:35:57;5.03;;;1.73;;
41966;SDS011;27656;53.068;8.818;2023-04-03T14:38:24;5.87;;;1.50;;
41966;SDS011;27656;53.068;8.818;2023-04-03T14:40:53;3.43;;;1.43;;
41966;SDS011;27656;53.068;8.818;2023-04-03T14:43:24;5.93;;;1.30;;
41966;SDS011;27656;53.068;8.818;2023-04-03T14:45:51;2.47;;;1.40;;
41966;SDS011;27656;53.068;8.818;2023-04-03T14:48:19;4.13;;;1.40;;
41966;SDS011;27656;53.068;8.818;2023-04-03T14:50:48;1.53;;;1.20;;
41966;SDS011;27656;53.068;8.818;2023-04-03T14:53:31;2.73;;;1.40;;
41966;SDS011;27656;53.068;8.818;2023-04-03T14:56:18;4.10;;;1.50;;
41966;SDS011;27656;53.068;8.818;2023-04-03T14:58:48;4.50;;;1.43;;
41966;SDS011;27656;53.068;8.818;2023-04-03T15:01:17;5.00;;;1.70;;
41966;SDS011;27656;53.068;8.818;2023-04-03T15:03:44;4.70;;;1.33;;
41966;SDS011;27656;53.068;8.818;2023-04-03T15:06:11;3.07;;;1.60;;
41966;SDS011;27656;53.068;8.818;2023-04-03T15:08:39;6.27;;;1.50;;
41966;SDS011;27656;53.068;8.818;2023-04-03T15:11:08;7.20;;;1.40;;
41966;SDS011;27656;53.068;8.818;2023-04-03T15:13:36;5.70;;;1.77;;
41966;SDS011;27656;53.068;8.818;2023-04-03T15:16:04;3.27;;;1.40;;
41966;SDS011;27656;53.068;8.818;2023-04-03T15:18:32;3.53;;;1.47;;
41966;SDS011;27656;53.068;8.818;2023-04-03T15:21:03;3.37;;;1.53;;
41966;SDS011;27656;53.068;8.818;2023-04-03T15:23:30;5.30;;;1.30;;
41966;SDS011;27656;53.068;8.818;2023-04-03T15:25:57;4.47;;;1.50;;
41966;SDS011;27656;53.068;8.818;2023-04-03T15:28:34;3.27;;;1.60;;
41966;SDS011;27656;53.068;8.818;2023-04-03T15:31:01;4.77;;;1.80;;
41966;SDS011;27656;53.068;8.818;2023-04-03T15:33:28;5.17;;;1.57;;
41966;SDS011;27656;53.068;8.818;2023-04-03T15:35:55;4.63;;;1.50;;
41966;SDS011;27656;53.068;8.818;2023-04-03T15:38:33;4.93;;;1.50;;
41966;SDS011;27656;53.068;8.818;2023-04-03T15:40:59;7.40;;;2.17;;
41966;SDS011;27656;53.068;8.818;2023-04-03T15:43:26;7.43;;;2.10;;
41966;SDS011;27656;53.068;8.818;2023-04-03T15:45:52;2.30;;;1.30;;
41966;SDS011;27656;53.068;8.818;2023-04-03T15:48:23;8.03;;;2.00;;
41966;SDS011;27656;53.068;8.818;2023-04-03T15:50:49;4.57;;;1.80;;
41966;SDS011;27656;53.068;8.818;2023-04-03T15:53:16;8.53;;;2.97;;
41966;SDS011;27656;53.068;8.818;2023-04-03T15:55:42;5.27;;;1.97;;
41966;SDS011;27656;53.068;8.818;2023-04-03T15:58:09;6.30;;;1.80;;
41966;SDS011;27656;53.068;8.818;2023-04-03T16:00:37;3.53;;;1.50;;
41966;SDS011;27656;53.068;8.818;2023-04-03T16:03:06;3.07;;;1.53;;
41966;SDS011;27656;53.068;8.818;2023-04-03T16:05:35;5.50;;;2.07;;
41966;SDS011;27656;53.068;8.818;2023-04-03T16:08:02;3.07;;;1.43;;
41966;SDS011;27656;53.068;8.818;2023-04-03T16:10:29;8.17;;;2.00;;
41966;SDS011;27656;53.068;8.818;2023-04-03T16:12:56;4.47;;;1.83;;
41966;SDS011;27656;53.068;8.818;2023-04-03T16:15:23;4.50;;;1.40;;
41966;SDS011;27656;53.068;8.818;2023-04-03T16:17:50;4.53;;;1.67;;
41966;SDS011;27656;53.068;8.818;2023-04-03T16:20:17;3.17;;;1.90;;
41966;SDS011;27656;53.068;8.818;2023-04-03T16:22:44;5.63;;;1.80;;
41966;SDS011;27656;53.068;8.818;2023-04-03T16:25:11;3.33;;;1.80;;
41966;SDS011;27656;53.068;8.818;2023-04-03T16:27:38;2.30;;;1.40;;
41966;SDS011;27656;53.068;8.818;2023-04-03T16:30:06;5.50;;;1.80;;
41966;SDS011;27656;53.068;8.818;2023-04-03T16:32:33;2.70;;;1.40;;
41966;SDS011;27656;53.068;8.818;2023-04-03T16:35:00;4.87;;;1.50;;
41966;SDS011;27656;53.068;8.818;2023-04-03T16:37:32;5.03;;;1.57;;
41966;SDS011;27656;53.068;8.818;2023-04-03T16:39:58;5.30;;;1.90;;
41966;SDS011;27656;53.068;8.818;2023-04-03T16:42:25;2.67;;;1.60;;
41966;SDS011;27656;53.068;8.818;2023-04-03T16:44:51;3.63;;;1.80;;
41966;SDS011;27656;53.068;8.818;2023-04-03T16:47:18;3.87;;;1.83;;
41966;SDS011;27656;53.068;8.818;2023-04-03T16:49:45;4.83;;;1.60;;
41966;SDS011;27656;53.068;8.818;2023-04-03T16:52:13;4.40;;;1.67;;
41966;SDS011;27656;53.068;8.818;2023-04-03T16:54:40;3.47;;;1.67;;
41966;SDS011;27656;53.068;8.818;2023-04-03T16:57:07;6.03;;;1.80;;
41966;SDS011;27656;53.068;8.818;2023-04-03T16:59:33;5.07;;;1.97;;